sensor_id;sensor_type;location;lat;lon;timestamp;pressure;altitude;pressure_sealevel;temperature;humidity
7109;BME280;29079;41.930;25.558;2022-07-06T00:00:41;99411.97;;;22.77;50.66
7109;BME280;29079;41.930;25.558;2022-07-06T00:03:11;99407.91;;;22.87;50.48
7109;BME280;29079;41.930;25.558;2022-07-06T00:05:41;99402.72;;;22.78;51.09
7109;BME280;29079;41.930;25.558;2022-07-06T00:08:11;99409.72;;;22.68;52.90
7109;BME280;29079;41.930;25.558;2022-07-06T00:10:41;99401.44;;;22.56;53.70
7109;BME280;29079;41.930;25.558;2022-07-06T00:13:13;99406.75;;;22.31;54.82
7109;BME280;29079;41.930;25.558;2022-07-06T00:15:44;99411.41;;;22.17;55.36
7109;BME280;29079;41.930;25.558;2022-07-06T00:18:15;99406.41;;;22.14;55.55
7109;BME280;29079;41.930;25.558;2022-07-06T00:20:45;99410.97;;;22.26;55.38
7109;BME280;29079;41.930;25.558;2022-07-06T00:23:15;99406.19;;;22.08;55.99
7109;BME280;29079;41.930;25.558;2022-07-06T00:25:45;99405.22;;;21.96;56.53
7109;BME280;29079;41.930;25.558;2022-07-06T00:28:16;99408.22;;;21.61;57.71
7109;BME280;29079;41.930;25.558;2022-07-06T00:30:49;99407.16;;;21.69;57.48
7109;BME280;29079;41.930;25.558;2022-07-06T00:33:19;99396.91;;;21.84;57.04
7109;BME280;29079;41.930;25.558;2022-07-06T00:35:49;99393.09;;;21.92;56.83
7109;BME280;29079;41.930;25.558;2022-07-06T00:38:19;99396.22;;;21.96;57.02
7109;BME280;29079;41.930;25.558;2022-07-06T00:40:50;99391.47;;;21.71;57.60
7109;BME280;29079;41.930;25.558;2022-07-06T00:43:20;99395.25;;;21.63;57.69
7109;BME280;29079;41.930;25.558;2022-07-06T00:45:51;99387.72;;;21.79;57.50
7109;BME280;29079;41.930;25.558;2022-07-06T00:48:22;99389.41;;;21.66;58.02
7109;BME280;29079;41.930;25.558;2022-07-06T00:50:52;99385.22;;;21.64;58.08
7109;BME280;29079;41.930;25.558;2022-07-06T00:53:22;99383.78;;;21.54;58.22
7109;BME280;29079;41.930;25.558;2022-07-06T00:55:52;99387.94;;;21.70;57.96
7109;BME280;29079;41.930;25.558;2022-07-06T00:58:22;99394.22;;;21.64;58.06
7109;BME280;29079;41.930;25.558;2022-07-06T01:00:54;99396.50;;;21.67;57.76
7109;BME280;29079;41.930;25.558;2022-07-06T01:03:25;99398.56;;;21.65;57.88
7109;BME280;29079;41.930;25.558;2022-07-06T01:05:55;99388.78;;;21.37;58.61
7109;BME280;29079;41.930;25.558;2022-07-06T01:08:25;99376.47;;;21.35;58.58
7109;BME280;29079;41.930;25.558;2022-07-06T01:10:55;99379.41;;;21.13;59.30
7109;BME280;29079;41.930;25.558;2022-07-06T01:13:26;99380.44;;;21.05;59.23
7109;BME280;29079;41.930;25.558;2022-07-06T01:15:58;99380.88;;;20.96;59.71
7109;BME280;29079;41.930;25.558;2022-07-06T01:18:28;99390.44;;;20.98;59.51
7109;BME280;29079;41.930;25.558;2022-07-06T01:21:10;99376.25;;;20.76;60.21
7109;BME280;29079;41.930;25.558;2022-07-06T01:23:41;99378.97;;;20.90;59.77
7109;BME280;29079;41.930;25.558;2022-07-06T01:26:14;99387.31;;;20.75;60.06
7109;BME280;29079;41.930;25.558;2022-07-06T01:28:44;99374.09;;;20.51;60.11
7109;BME280;29079;41.930;25.558;2022-07-06T01:31:16;99367.88;;;20.64;59.46
7109;BME280;29079;41.930;25.558;2022-07-06T01:33:49;99377.50;;;20.74;59.50
7109;BME280;29079;41.930;25.558;2022-07-06T01:36:20;99371.22;;;20.66;59.70
7109;BME280;29079;41.930;25.558;2022-07-06T01:38:51;99373.78;;;20.81;59.23
7109;BME280;29079;41.930;25.558;2022-07-06T01:41:22;99382.09;;;20.73;59.58
7109;BME280;29079;41.930;25.558;2022-07-06T01:43:52;99377.31;;;20.82;59.35
7109;BME280;29079;41.930;25.558;2022-07-06T01:46:22;99377.94;;;20.91;59.02
7109;BME280;29079;41.930;25.558;2022-07-06T01:48:52;99379.78;;;20.70;59.80
7109;BME280;29079;41.930;25.558;2022-07-06T01:51:24;99384.81;;;20.73;59.59
7109;BME280;29079;41.930;25.558;2022-07-06T01:53:54;99371.69;;;20.77;59.31
7109;BME280;29079;41.930;25.558;2022-07-06T01:56:24;99370.19;;;20.81;58.96
7109;BME280;29079;41.930;25.558;2022-07-06T01:58:54;99384.63;;;20.81;59.10
7109;BME280;29079;41.930;25.558;2022-07-06T02:01:25;99375.41;;;20.69;59.11
7109;BME280;29079;41.930;25.558;2022-07-06T02:03:55;99382.72;;;20.75;59.09
7109;BME280;29079;41.930;25.558;2022-07-06T02:06:27;99377.41;;;20.47;59.64
7109;BME280;29079;41.930;25.558;2022-07-06T02:08:57;99365.13;;;20.58;59.29
7109;BME280;29079;41.930;25.558;2022-07-06T02:11:27;99371.81;;;20.55;59.28
7109;BME280;29079;41.930;25.558;2022-07-06T02:14:00;99370.13;;;20.41;59.80
7109;BME280;29079;41.930;25.558;2022-07-06T02:16:30;99356.78;;;20.39;60.34
7109;BME280;29079;41.930;25.558;2022-07-06T02:19:00;99344.66;;;20.35;59.83
7109;BME280;29079;41.930;25.558;2022-07-06T02:21:32;99344.06;;;20.46;59.82
7109;BME280;29079;41.930;25.558;2022-07-06T02:24:03;99350.09;;;20.42;60.17
7109;BME280;29079;41.930;25.558;2022-07-06T02:26:33;99352.19;;;20.53;59.88
7109;BME280;29079;41.930;25.558;2022-07-06T02:29:03;99352.84;;;20.55;59.97
7109;BME280;29079;41.930;25.558;2022-07-06T02:31:33;99351.78;;;20.49;60.16
7109;BME280;29079;41.930;25.558;2022-07-06T02:34:03;99357.00;;;20.58;59.93
7109;BME280;29079;41.930;25.558;2022-07-06T02:36:34;99340.31;;;20.54;60.21
7109;BME280;29079;41.930;25.558;2022-07-06T02:39:04;99334.66;;;20.35;60.55
7109;BME280;29079;41.930;25.558;2022-07-06T02:41:34;99335.88;;;20.26;61.03
7109;BME280;29079;41.930;25.558;2022-07-06T02:44:04;99330.91;;;20.37;60.68
7109;BME280;29079;41.930;25.558;2022-07-06T02:46:34;99331.28;;;20.20;61.29
7109;BME280;29079;41.930;25.558;2022-07-06T02:49:04;99329.22;;;20.29;61.02
7109;BME280;29079;41.930;25.558;2022-07-06T02:51:36;99332.38;;;20.46;60.46
7109;BME280;29079;41.930;25.558;2022-07-06T02:54:06;99326.16;;;20.52;60.13
7109;BME280;29079;41.930;25.558;2022-07-06T02:56:36;99330.47;;;20.33;60.88
7109;BME280;29079;41.930;25.558;2022-07-06T02:59:06;99328.19;;;20.37;60.80
7109;BME280;29079;41.930;25.558;2022-07-06T03:01:41;99324.69;;;20.63;60.20
7109;BME280;29079;41.930;25.558;2022-07-06T03:04:12;99327.16;;;20.38;60.87
7109;BME280;29079;41.930;25.558;2022-07-06T03:06:43;99333.22;;;20.53;60.47
7109;BME280;29079;41.930;25.558;2022-07-06T03:09:14;99332.16;;;20.47;60.65
7109;BME280;29079;41.930;25.558;2022-07-06T03:11:44;99318.22;;;20.44;60.36
7109;BME280;29079;41.930;25.558;2022-07-06T03:14:15;99333.88;;;20.55;60.35
7109;BME280;29079;41.930;25.558;2022-07-06T03:16:46;99325.53;;;20.57;60.23
7109;BME280;29079;41.930;25.558;2022-07-06T03:19:19;99324.47;;;20.58;60.56
7109;BME280;29079;41.930;25.558;2022-07-06T03:21:50;99323.44;;;20.52;60.78
7109;BME280;29079;41.930;25.558;2022-07-06T03:24:20;99331.56;;;20.59;60.68
7109;BME280;29079;41.930;25.558;2022-07-06T03:26:50;99324.06;;;20.61;60.79
7109;BME280;29079;41.930;25.558;2022-07-06T03:29:21;99324.31;;;20.79;60.12
7109;BME280;29079;41.930;25.558;2022-07-06T03:31:51;99331.81;;;20.84;60.04
7109;BME280;29079;41.930;25.558;2022-07-06T03:34:21;99330.75;;;20.58;60.88
7109;BME280;29079;41.930;25.558;2022-07-06T03:36:52;99331.78;;;20.64;60.67
7109;BME280;29079;41.930;25.558;2022-07-06T03:39:22;99324.69;;;20.56;61.18
7109;BME280;29079;41.930;25.558;2022-07-06T03:41:52;99323.81;;;20.49;61.08
7109;BME280;29079;41.930;25.558;2022-07-06T03:44:22;99334.06;;;20.47;61.43
7109;BME280;29079;41.930;25.558;2022-07-06T03:46:52;99332.81;;;20.49;61.58
7109;BME280;29079;41.930;25.558;2022-07-06T03:49:24;99331.56;;;20.52;61.64
7109;BME280;29079;41.930;25.558;2022-07-06T03:51:57;99340.13;;;20.62;61.36
7109;BME280;29079;41.930;25.558;2022-07-06T03:54:27;99335.16;;;20.79;60.70
7109;BME280;29079;41.930;25.558;2022-07-06T03:56:57;99341.22;;;20.81;60.42
7109;BME280;29079;41.930;25.558;2022-07-06T03:59:27;99346.78;;;20.46;61.53
7109;BME280;29079;41.930;25.558;2022-07-06T04:01:57;99351.75;;;20.36;61.69
7109;BME280;29079;41.930;25.558;2022-07-06T04:04:27;99345.50;;;20.42;61.80
7109;BME280;29079;41.930;25.558;2022-07-06T04:06:59;99345.72;;;20.47;61.48
7109;BME280;29079;41.930;25.558;2022-07-06T04:09:29;99345.13;;;20.52;61.12
7109;BME280;29079;41.930;25.558;2022-07-06T04:12:00;99350.69;;;20.30;61.93
7109;BME280;29079;41.930;25.558;2022-07-06T04:14:31;99348.00;;;20.30;61.94
7109;BME280;29079;41.930;25.558;2022-07-06T04:17:02;99344.22;;;20.31;61.75
7109;BME280;29079;41.930;25.558;2022-07-06T04:19:53;99344.66;;;20.42;61.75
7109;BME280;29079;41.930;25.558;2022-07-06T04:22:25;99353.66;;;20.49;61.63
7109;BME280;29079;41.930;25.558;2022-07-06T04:24:55;99347.38;;;20.42;61.46
7109;BME280;29079;41.930;25.558;2022-07-06T04:27:25;99350.13;;;20.62;61.22
7109;BME280;29079;41.930;25.558;2022-07-06T04:29:55;99347.22;;;20.57;61.35
7109;BME280;29079;41.930;25.558;2022-07-06T04:32:25;99348.47;;;20.61;61.39
7109;BME280;29079;41.930;25.558;2022-07-06T04:34:55;99358.53;;;20.67;61.38
7109;BME280;29079;41.930;25.558;2022-07-06T04:37:26;99349.06;;;20.56;61.72
7109;BME280;29079;41.930;25.558;2022-07-06T04:39:56;99358.31;;;20.82;61.06
7109;BME280;29079;41.930;25.558;2022-07-06T04:42:26;99364.78;;;20.87;60.78
7109;BME280;29079;41.930;25.558;2022-07-06T04:44:57;99367.53;;;20.94;60.61
7109;BME280;29079;41.930;25.558;2022-07-06T04:47:27;99362.31;;;21.06;60.38
7109;BME280;29079;41.930;25.558;2022-07-06T04:49:57;99361.88;;;21.16;60.38
7109;BME280;29079;41.930;25.558;2022-07-06T04:52:29;99370.44;;;21.26;59.94
7109;BME280;29079;41.930;25.558;2022-07-06T04:54:59;99367.09;;;21.31;59.57
7109;BME280;29079;41.930;25.558;2022-07-06T04:57:29;99370.63;;;21.38;59.57
7109;BME280;29079;41.930;25.558;2022-07-06T04:59:59;99370.19;;;21.34;59.71
7109;BME280;29079;41.930;25.558;2022-07-06T05:02:29;99363.50;;;21.50;59.59
7109;BME280;29079;41.930;25.558;2022-07-06T05:04:59;99375.81;;;21.66;58.93
7109;BME280;29079;41.930;25.558;2022-07-06T05:07:31;99368.50;;;21.73;58.81
7109;BME280;29079;41.930;25.558;2022-07-06T05:10:02;99362.63;;;21.83;58.53
7109;BME280;29079;41.930;25.558;2022-07-06T05:12:34;99369.25;;;21.94;57.95
7109;BME280;29079;41.930;25.558;2022-07-06T05:15:06;99361.91;;;22.01;56.75
7109;BME280;29079;41.930;25.558;2022-07-06T05:17:36;99374.47;;;22.02;56.31
7109;BME280;29079;41.930;25.558;2022-07-06T05:20:07;99369.16;;;22.21;54.98
7109;BME280;29079;41.930;25.558;2022-07-06T05:22:38;99382.47;;;22.29;54.22
7109;BME280;29079;41.930;25.558;2022-07-06T05:25:14;99380.34;;;22.45;53.54
7109;BME280;29079;41.930;25.558;2022-07-06T05:27:45;99376.97;;;22.49;51.59
7109;BME280;29079;41.930;25.558;2022-07-06T05:30:15;99377.41;;;22.53;50.64
7109;BME280;29079;41.930;25.558;2022-07-06T05:32:44;99380.00;;;22.73;51.34
7109;BME280;29079;41.930;25.558;2022-07-06T05:35:15;99379.44;;;22.89;52.69
7109;BME280;29079;41.930;25.558;2022-07-06T05:38:06;99379.41;;;22.96;53.36
7109;BME280;29079;41.930;25.558;2022-07-06T05:40:37;99383.88;;;23.09;53.40
7109;BME280;29079;41.930;25.558;2022-07-06T05:43:06;99379.97;;;23.30;53.17
7109;BME280;29079;41.930;25.558;2022-07-06T05:45:37;99382.44;;;23.38;52.91
7109;BME280;29079;41.930;25.558;2022-07-06T05:48:06;99388.94;;;23.37;51.60
7109;BME280;29079;41.930;25.558;2022-07-06T05:50:54;99379.41;;;23.46;51.02
7109;BME280;29079;41.930;25.558;2022-07-06T05:53:26;99386.97;;;23.44;50.74
7109;BME280;29079;41.930;25.558;2022-07-06T05:55:56;99382.91;;;23.54;50.50
7109;BME280;29079;41.930;25.558;2022-07-06T05:58:26;99393.09;;;23.58;49.79
7109;BME280;29079;41.930;25.558;2022-07-06T06:00:56;99392.47;;;23.63;50.43
7109;BME280;29079;41.930;25.558;2022-07-06T06:03:26;99387.31;;;23.73;50.54
7109;BME280;29079;41.930;25.558;2022-07-06T06:05:56;99388.91;;;23.81;51.28
7109;BME280;29079;41.930;25.558;2022-07-06T06:08:28;99390.41;;;23.77;50.17
7109;BME280;29079;41.930;25.558;2022-07-06T06:10:58;99387.13;;;23.93;49.97
7109;BME280;29079;41.930;25.558;2022-07-06T06:13:29;99392.72;;;23.98;50.53
7109;BME280;29079;41.930;25.558;2022-07-06T06:15:59;99386.75;;;24.08;48.90
7109;BME280;29079;41.930;25.558;2022-07-06T06:18:30;99379.78;;;24.12;49.28
7109;BME280;29079;41.930;25.558;2022-07-06T06:21:09;99390.97;;;24.23;49.02
7109;BME280;29079;41.930;25.558;2022-07-06T06:23:40;99386.09;;;24.25;48.43
7109;BME280;29079;41.930;25.558;2022-07-06T06:26:10;99388.59;;;24.26;47.21
7109;BME280;29079;41.930;25.558;2022-07-06T06:28:41;99387.84;;;24.38;47.39
7109;BME280;29079;41.930;25.558;2022-07-06T06:31:11;99384.91;;;24.51;46.94
7109;BME280;29079;41.930;25.558;2022-07-06T06:33:41;99390.44;;;24.63;46.24
7109;BME280;29079;41.930;25.558;2022-07-06T06:36:11;99392.75;;;24.78;46.75
7109;BME280;29079;41.930;25.558;2022-07-06T06:38:43;99386.91;;;24.74;45.42
7109;BME280;29079;41.930;25.558;2022-07-06T06:41:13;99393.38;;;24.92;45.53
7109;BME280;29079;41.930;25.558;2022-07-06T06:43:43;99388.16;;;25.02;46.04
7109;BME280;29079;41.930;25.558;2022-07-06T06:46:14;99389.13;;;25.08;45.54
7109;BME280;29079;41.930;25.558;2022-07-06T06:48:44;99390.00;;;25.20;45.33
7109;BME280;29079;41.930;25.558;2022-07-06T06:51:14;99390.34;;;25.24;44.81
7109;BME280;29079;41.930;25.558;2022-07-06T06:53:46;99393.44;;;25.27;44.63
7109;BME280;29079;41.930;25.558;2022-07-06T06:56:16;99394.44;;;25.33;44.53
7109;BME280;29079;41.930;25.558;2022-07-06T06:58:47;99390.84;;;25.44;45.41
7109;BME280;29079;41.930;25.558;2022-07-06T07:01:37;99393.25;;;25.52;43.61
7109;BME280;29079;41.930;25.558;2022-07-06T07:04:07;99388.47;;;25.60;43.86
7109;BME280;29079;41.930;25.558;2022-07-06T07:06:37;99384.69;;;25.61;43.85
7109;BME280;29079;41.930;25.558;2022-07-06T07:09:09;99390.88;;;25.68;44.49
7109;BME280;29079;41.930;25.558;2022-07-06T07:11:40;99383.13;;;25.77;44.48
7109;BME280;29079;41.930;25.558;2022-07-06T07:14:10;99375.19;;;25.75;44.55
7109;BME280;29079;41.930;25.558;2022-07-06T07:16:40;99384.56;;;25.79;44.39
7109;BME280;29079;41.930;25.558;2022-07-06T07:19:11;99391.31;;;25.88;44.90
7109;BME280;29079;41.930;25.558;2022-07-06T07:21:41;99391.16;;;25.95;44.05
7109;BME280;29079;41.930;25.558;2022-07-06T07:24:12;99392.28;;;25.82;44.48
7109;BME280;29079;41.930;25.558;2022-07-06T07:26:42;99395.06;;;25.99;44.23
7109;BME280;29079;41.930;25.558;2022-07-06T07:29:12;99386.28;;;26.09;44.94
7109;BME280;29079;41.930;25.558;2022-07-06T07:31:42;99390.69;;;26.10;45.19
7109;BME280;29079;41.930;25.558;2022-07-06T07:34:12;99389.72;;;26.16;45.34
7109;BME280;29079;41.930;25.558;2022-07-06T07:36:43;99389.34;;;26.24;45.89
7109;BME280;29079;41.930;25.558;2022-07-06T07:39:14;99386.38;;;26.26;45.66
7109;BME280;29079;41.930;25.558;2022-07-06T07:41:46;99372.94;;;26.24;45.74
7109;BME280;29079;41.930;25.558;2022-07-06T07:44:19;99376.94;;;26.34;46.45
7109;BME280;29079;41.930;25.558;2022-07-06T07:46:49;99374.06;;;26.40;46.18
7109;BME280;29079;41.930;25.558;2022-07-06T07:49:22;99370.66;;;26.33;45.95
7109;BME280;29079;41.930;25.558;2022-07-06T07:51:52;99368.34;;;26.42;46.12
7109;BME280;29079;41.930;25.558;2022-07-06T07:54:23;99361.75;;;26.55;46.30
7109;BME280;29079;41.930;25.558;2022-07-06T07:56:54;99368.28;;;26.54;46.48
7109;BME280;29079;41.930;25.558;2022-07-06T07:59:25;99364.06;;;26.63;46.13
7109;BME280;29079;41.930;25.558;2022-07-06T08:01:55;99364.53;;;26.72;45.99
7109;BME280;29079;41.930;25.558;2022-07-06T08:04:25;99360.16;;;26.71;45.69
7109;BME280;29079;41.930;25.558;2022-07-06T08:06:55;99357.78;;;26.63;45.59
7109;BME280;29079;41.930;25.558;2022-07-06T08:09:31;99358.97;;;26.67;45.92
7109;BME280;29079;41.930;25.558;2022-07-06T08:12:02;99358.66;;;26.80;45.51
7109;BME280;29079;41.930;25.558;2022-07-06T08:14:32;99371.28;;;26.81;45.93
7109;BME280;29079;41.930;25.558;2022-07-06T08:17:03;99362.56;;;26.84;45.40
7109;BME280;29079;41.930;25.558;2022-07-06T08:19:33;99353.19;;;26.80;45.22
7109;BME280;29079;41.930;25.558;2022-07-06T08:22:04;99363.81;;;26.93;45.70
7109;BME280;29079;41.930;25.558;2022-07-06T08:24:37;99365.81;;;26.98;45.14
7109;BME280;29079;41.930;25.558;2022-07-06T08:27:08;99364.66;;;26.94;45.23
7109;BME280;29079;41.930;25.558;2022-07-06T08:29:38;99367.47;;;26.99;45.95
7109;BME280;29079;41.930;25.558;2022-07-06T08:32:08;99365.09;;;27.03;45.83
7109;BME280;29079;41.930;25.558;2022-07-06T08:34:53;99360.94;;;27.00;46.62
7109;BME280;29079;41.930;25.558;2022-07-06T08:37:23;99346.97;;;27.02;48.78
7109;BME280;29079;41.930;25.558;2022-07-06T08:39:55;99340.59;;;27.13;46.00
7109;BME280;29079;41.930;25.558;2022-07-06T08:42:29;99337.25;;;27.28;45.69
7109;BME280;29079;41.930;25.558;2022-07-06T08:45:02;99351.56;;;27.13;45.87
7109;BME280;29079;41.930;25.558;2022-07-06T08:47:35;99345.78;;;27.32;44.97
7109;BME280;29079;41.930;25.558;2022-07-06T08:50:06;99341.56;;;27.24;44.27
7109;BME280;29079;41.930;25.558;2022-07-06T08:52:36;99345.78;;;27.32;44.44
7109;BME280;29079;41.930;25.558;2022-07-06T08:55:09;99354.69;;;27.39;44.38
7109;BME280;29079;41.930;25.558;2022-07-06T08:57:39;99354.25;;;27.30;44.24
7109;BME280;29079;41.930;25.558;2022-07-06T09:00:11;99350.03;;;27.22;44.38
7109;BME280;29079;41.930;25.558;2022-07-06T09:02:42;99348.97;;;27.23;44.79
7109;BME280;29079;41.930;25.558;2022-07-06T09:05:14;99347.97;;;27.30;44.20
7109;BME280;29079;41.930;25.558;2022-07-06T09:07:45;99348.72;;;27.25;44.16
7109;BME280;29079;41.930;25.558;2022-07-06T09:10:28;99351.88;;;27.34;44.34
7109;BME280;29079;41.930;25.558;2022-07-06T09:13:03;99338.50;;;27.37;44.32
7109;BME280;29079;41.930;25.558;2022-07-06T09:15:35;99345.63;;;27.55;44.16
7109;BME280;29079;41.930;25.558;2022-07-06T09:18:20;99339.41;;;27.43;43.57
7109;BME280;29079;41.930;25.558;2022-07-06T09:20:51;99276.88;;;26.84;43.83
7109;BME280;29079;41.930;25.558;2022-07-06T09:23:23;99346.22;;;27.40;44.05
7109;BME280;29079;41.930;25.558;2022-07-06T09:25:55;99341.63;;;27.63;43.21
7109;BME280;29079;41.930;25.558;2022-07-06T09:28:40;99342.50;;;27.69;43.39
7109;BME280;29079;41.930;25.558;2022-07-06T09:31:11;99323.88;;;27.71;43.08
7109;BME280;29079;41.930;25.558;2022-07-06T09:33:55;99330.41;;;27.65;43.09
7109;BME280;29079;41.930;25.558;2022-07-06T09:36:40;99321.72;;;27.51;43.20
7109;BME280;29079;41.930;25.558;2022-07-06T09:39:24;99330.50;;;27.53;43.25
7109;BME280;29079;41.930;25.558;2022-07-06T09:41:57;99313.50;;;27.51;42.78
7109;BME280;29079;41.930;25.558;2022-07-06T09:44:29;99326.63;;;27.71;42.59
7109;BME280;29079;41.930;25.558;2022-07-06T09:47:01;99327.72;;;27.70;43.86
7109;BME280;29079;41.930;25.558;2022-07-06T09:49:31;99319.13;;;27.83;42.80
7109;BME280;29079;41.930;25.558;2022-07-06T09:52:03;99316.56;;;27.76;43.65
7109;BME280;29079;41.930;25.558;2022-07-06T09:54:34;99312.09;;;27.70;43.39
7109;BME280;29079;41.930;25.558;2022-07-06T09:57:07;99307.94;;;27.90;42.92
7109;BME280;29079;41.930;25.558;2022-07-06T09:59:37;99307.53;;;27.98;42.74
7109;BME280;29079;41.930;25.558;2022-07-06T10:02:08;99315.69;;;27.93;42.39
7109;BME280;29079;41.930;25.558;2022-07-06T10:04:38;99309.19;;;27.77;43.09
7109;BME280;29079;41.930;25.558;2022-07-06T10:07:09;99305.41;;;27.83;42.74
7109;BME280;29079;41.930;25.558;2022-07-06T10:09:40;99310.81;;;27.78;43.55
7109;BME280;29079;41.930;25.558;2022-07-06T10:12:13;99302.09;;;27.81;43.29
7109;BME280;29079;41.930;25.558;2022-07-06T10:14:47;99301.53;;;28.01;42.02
7109;BME280;29079;41.930;25.558;2022-07-06T10:17:20;99295.16;;;28.18;42.37
7109;BME280;29079;41.930;25.558;2022-07-06T10:19:51;99296.59;;;28.25;41.77
7109;BME280;29079;41.930;25.558;2022-07-06T10:22:22;99298.97;;;28.17;42.09
7109;BME280;29079;41.930;25.558;2022-07-06T10:24:52;99298.88;;;28.34;41.86
7109;BME280;29079;41.930;25.558;2022-07-06T10:27:24;99281.56;;;28.33;42.51
7109;BME280;29079;41.930;25.558;2022-07-06T10:29:55;99284.72;;;28.47;42.36
7109;BME280;29079;41.930;25.558;2022-07-06T10:32:26;99290.00;;;28.54;41.59
7109;BME280;29079;41.930;25.558;2022-07-06T10:34:56;99294.78;;;28.63;41.63
7109;BME280;29079;41.930;25.558;2022-07-06T10:37:27;99274.75;;;28.36;42.54
7109;BME280;29079;41.930;25.558;2022-07-06T10:39:58;99286.28;;;28.38;41.49
7109;BME280;29079;41.930;25.558;2022-07-06T10:42:48;99291.19;;;28.36;42.34
7109;BME280;29079;41.930;25.558;2022-07-06T10:45:49;99282.97;;;28.36;41.99
7109;BME280;29079;41.930;25.558;2022-07-06T10:48:20;99278.09;;;28.43;41.62
7109;BME280;29079;41.930;25.558;2022-07-06T10:50:53;99274.84;;;28.46;41.93
7109;BME280;29079;41.930;25.558;2022-07-06T10:53:24;99266.66;;;28.51;42.06
7109;BME280;29079;41.930;25.558;2022-07-06T10:55:56;99262.94;;;28.35;42.64
7109;BME280;29079;41.930;25.558;2022-07-06T10:58:41;99279.78;;;28.49;40.98
7109;BME280;29079;41.930;25.558;2022-07-06T11:01:16;99274.19;;;28.34;42.05
7109;BME280;29079;41.930;25.558;2022-07-06T11:03:48;99276.94;;;28.34;42.19
7109;BME280;29079;41.930;25.558;2022-07-06T11:06:20;99280.66;;;28.22;42.54
7109;BME280;29079;41.930;25.558;2022-07-06T11:08:55;99283.81;;;28.09;42.13
7109;BME280;29079;41.930;25.558;2022-07-06T11:11:38;99271.97;;;28.03;42.63
7109;BME280;29079;41.930;25.558;2022-07-06T11:14:12;99262.59;;;27.99;42.84
7109;BME280;29079;41.930;25.558;2022-07-06T11:17:02;99273.84;;;28.03;42.30
7109;BME280;29079;41.930;25.558;2022-07-06T11:19:33;99270.44;;;27.95;42.13
7109;BME280;29079;41.930;25.558;2022-07-06T11:22:08;99260.72;;;27.83;42.56
7109;BME280;29079;41.930;25.558;2022-07-06T11:24:40;99271.81;;;27.93;42.02
7109;BME280;29079;41.930;25.558;2022-07-06T11:27:10;99272.63;;;27.93;42.13
7109;BME280;29079;41.930;25.558;2022-07-06T11:29:42;99264.16;;;27.95;42.63
7109;BME280;29079;41.930;25.558;2022-07-06T11:32:13;99264.50;;;27.99;41.76
7109;BME280;29079;41.930;25.558;2022-07-06T11:34:44;99263.88;;;27.96;41.62
7109;BME280;29079;41.930;25.558;2022-07-06T11:37:14;99272.78;;;28.04;41.19
7109;BME280;29079;41.930;25.558;2022-07-06T11:39:47;99262.69;;;28.09;41.23
7109;BME280;29079;41.930;25.558;2022-07-06T11:42:19;99257.56;;;28.18;41.52
7109;BME280;29079;41.930;25.558;2022-07-06T11:44:53;99250.50;;;28.27;40.96
7109;BME280;29079;41.930;25.558;2022-07-06T11:47:30;99256.09;;;28.38;40.59
7109;BME280;29079;41.930;25.558;2022-07-06T11:50:00;99249.94;;;28.53;40.44
7109;BME280;29079;41.930;25.558;2022-07-06T11:52:30;99240.91;;;28.57;40.35
7109;BME280;29079;41.930;25.558;2022-07-06T11:55:00;99234.66;;;28.62;39.37
7109;BME280;29079;41.930;25.558;2022-07-06T11:57:34;99232.66;;;28.57;39.54
7109;BME280;29079;41.930;25.558;2022-07-06T12:00:07;99227.50;;;28.61;40.16
7109;BME280;29079;41.930;25.558;2022-07-06T12:02:38;99243.38;;;28.59;39.98
7109;BME280;29079;41.930;25.558;2022-07-06T12:05:09;99235.94;;;28.54;40.62
7109;BME280;29079;41.930;25.558;2022-07-06T12:07:39;99234.13;;;28.65;40.42
7109;BME280;29079;41.930;25.558;2022-07-06T12:10:09;99209.16;;;28.66;39.91
7109;BME280;29079;41.930;25.558;2022-07-06T12:12:40;99226.44;;;29.05;39.43
7109;BME280;29079;41.930;25.558;2022-07-06T12:15:12;99232.22;;;29.08;40.68
7109;BME280;29079;41.930;25.558;2022-07-06T12:17:46;99231.09;;;29.04;40.61
7109;BME280;29079;41.930;25.558;2022-07-06T12:20:17;99233.22;;;28.92;40.72
7109;BME280;29079;41.930;25.558;2022-07-06T12:22:47;99231.72;;;28.74;40.99
7109;BME280;29079;41.930;25.558;2022-07-06T12:25:29;99225.94;;;28.70;40.89
7109;BME280;29079;41.930;25.558;2022-07-06T12:27:59;99223.22;;;28.75;40.94
7109;BME280;29079;41.930;25.558;2022-07-06T12:30:31;99224.94;;;28.87;40.93
7109;BME280;29079;41.930;25.558;2022-07-06T12:33:13;99226.66;;;28.98;40.76
7109;BME280;29079;41.930;25.558;2022-07-06T12:35:44;99213.03;;;29.13;40.58
7109;BME280;29079;41.930;25.558;2022-07-06T12:38:21;99224.84;;;29.19;40.83
7109;BME280;29079;41.930;25.558;2022-07-06T12:40:52;99208.91;;;29.11;41.42
7109;BME280;29079;41.930;25.558;2022-07-06T12:43:35;99213.25;;;29.07;42.20
7109;BME280;29079;41.930;25.558;2022-07-06T12:46:28;99210.47;;;29.01;42.10
7109;BME280;29079;41.930;25.558;2022-07-06T12:49:00;99209.72;;;29.11;41.71
7109;BME280;29079;41.930;25.558;2022-07-06T12:51:54;99212.72;;;29.10;42.21
7109;BME280;29079;41.930;25.558;2022-07-06T12:54:28;99214.66;;;29.14;41.77
7109;BME280;29079;41.930;25.558;2022-07-06T12:57:01;99209.13;;;29.04;41.73
7109;BME280;29079;41.930;25.558;2022-07-06T12:59:33;99206.69;;;29.13;42.21
7109;BME280;29079;41.930;25.558;2022-07-06T13:02:07;99211.06;;;29.09;42.36
7109;BME280;29079;41.930;25.558;2022-07-06T13:04:38;99197.63;;;29.12;41.99
7109;BME280;29079;41.930;25.558;2022-07-06T13:07:17;99185.75;;;29.01;41.93
7109;BME280;29079;41.930;25.558;2022-07-06T13:09:48;99188.03;;;29.15;41.22
7109;BME280;29079;41.930;25.558;2022-07-06T13:12:19;99185.31;;;29.15;41.34
7109;BME280;29079;41.930;25.558;2022-07-06T13:14:51;99183.16;;;29.22;41.03
7109;BME280;29079;41.930;25.558;2022-07-06T13:17:23;99186.38;;;29.14;41.62
7109;BME280;29079;41.930;25.558;2022-07-06T13:19:53;99186.00;;;28.95;41.57
7109;BME280;29079;41.930;25.558;2022-07-06T13:22:23;99166.25;;;28.98;40.69
7109;BME280;29079;41.930;25.558;2022-07-06T13:24:53;99159.41;;;29.00;40.81